sensor_id;sensor_type;location;lat;lon;timestamp;P1;durP1;ratioP1;P2;durP2;ratioP2
68192;SDS011;55012;47.562;18.414;2023-04-03T00:01:01;10.45;;;5.07;;
68192;SDS011;55012;47.562;18.414;2023-04-03T00:03:27;12.50;;;5.63;;
68192;SDS011;55012;47.562;18.414;2023-04-03T00:05:53;9.95;;;5.07;;
68192;SDS011;55012;47.562;18.414;2023-04-03T00:08:19;10.30;;;5.00;;
68192;SDS011;55012;47.562;18.414;2023-04-03T00:10:45;9.55;;;5.35;;
68192;SDS011;55012;47.562;18.414;2023-04-03T00:13:12;7.43;;;4.47;;
68192;SDS011;55012;47.562;18.414;2023-04-03T00:15:38;10.23;;;5.00;;
68192;SDS011;55012;47.562;18.414;2023-04-03T00:18:04;7.45;;;4.57;;
68192;SDS011;55012;47.562;18.414;2023-04-03T00:20:30;9.90;;;5.10;;
68192;SDS011;55012;47.562;18.414;2023-04-03T00:22:57;10.70;;;5.22;;
68192;SDS011;55012;47.562;18.414;2023-04-03T00:25:23;8.65;;;4.68;;
68192;SDS011;55012;47.562;18.414;2023-04-03T00:27:48;8.82;;;5.20;;
68192;SDS011;55012;47.562;18.414;2023-04-03T00:30:15;10.27;;;5.65;;
68192;SDS011;55012;47.562;18.414;2023-04-03T00:32:42;8.73;;;4.57;;
68192;SDS011;55012;47.562;18.414;2023-04-03T00:35:08;10.05;;;5.50;;
68192;SDS011;55012;47.562;18.414;2023-04-03T00:37:34;9.05;;;4.80;;
68192;SDS011;55012;47.562;18.414;2023-04-03T00:40:00;10.48;;;5.00;;
68192;SDS011;55012;47.562;18.414;2023-04-03T00:42:25;11.27;;;5.38;;
68192;SDS011;55012;47.562;18.414;2023-04-03T00:47:22;9.18;;;5.07;;
68192;SDS011;55012;47.562;18.414;2023-04-03T00:49:49;9.52;;;5.28;;
68192;SDS011;55012;47.562;18.414;2023-04-03T00:52:17;10.60;;;5.60;;
68192;SDS011;55012;47.562;18.414;2023-04-03T00:54:46;11.48;;;5.68;;
68192;SDS011;55012;47.562;18.414;2023-04-03T00:57:13;10.38;;;5.32;;
68192;SDS011;55012;47.562;18.414;2023-04-03T00:59:46;11.82;;;5.55;;
68192;SDS011;55012;47.562;18.414;2023-04-03T01:02:16;10.68;;;6.13;;
68192;SDS011;55012;47.562;18.414;2023-04-03T01:04:43;10.27;;;5.50;;
68192;SDS011;55012;47.562;18.414;2023-04-03T01:09:40;10.77;;;5.85;;
68192;SDS011;55012;47.562;18.414;2023-04-03T01:12:40;10.38;;;5.75;;
68192;SDS011;55012;47.562;18.414;2023-04-03T01:15:11;11.15;;;5.15;;
68192;SDS011;55012;47.562;18.414;2023-04-03T01:17:42;9.32;;;4.88;;
68192;SDS011;55012;47.562;18.414;2023-04-03T01:25:14;10.55;;;5.50;;
68192;SDS011;55012;47.562;18.414;2023-04-03T01:27:40;11.18;;;5.65;;
68192;SDS011;55012;47.562;18.414;2023-04-03T01:30:05;11.48;;;5.55;;
68192;SDS011;55012;47.562;18.414;2023-04-03T01:32:31;11.27;;;5.97;;
68192;SDS011;55012;47.562;18.414;2023-04-03T01:34:57;10.05;;;5.30;;
68192;SDS011;55012;47.562;18.414;2023-04-03T01:37:22;11.25;;;5.85;;
68192;SDS011;55012;47.562;18.414;2023-04-03T01:39:48;11.45;;;5.90;;
68192;SDS011;55012;47.562;18.414;2023-04-03T01:42:13;10.45;;;5.95;;
68192;SDS011;55012;47.562;18.414;2023-04-03T01:44:40;10.20;;;5.55;;
68192;SDS011;55012;47.562;18.414;2023-04-03T01:47:06;10.93;;;5.55;;
68192;SDS011;55012;47.562;18.414;2023-04-03T01:49:32;12.55;;;5.88;;
68192;SDS011;55012;47.562;18.414;2023-04-03T01:51:58;10.05;;;5.32;;
68192;SDS011;55012;47.562;18.414;2023-04-03T01:54:23;11.10;;;5.70;;
68192;SDS011;55012;47.562;18.414;2023-04-03T01:56:48;8.95;;;5.05;;
68192;SDS011;55012;47.562;18.414;2023-04-03T01:59:14;10.13;;;4.75;;
68192;SDS011;55012;47.562;18.414;2023-04-03T02:01:42;9.05;;;4.95;;
68192;SDS011;55012;47.562;18.414;2023-04-03T02:04:08;8.65;;;4.60;;
68192;SDS011;55012;47.562;18.414;2023-04-03T02:06:34;11.50;;;5.57;;
68192;SDS011;55012;47.562;18.414;2023-04-03T02:09:00;8.80;;;5.32;;
68192;SDS011;55012;47.562;18.414;2023-04-03T02:11:25;11.52;;;5.30;;
68192;SDS011;55012;47.562;18.414;2023-04-03T02:13:51;10.05;;;5.60;;
68192;SDS011;55012;47.562;18.414;2023-04-03T02:16:16;9.57;;;5.53;;
68192;SDS011;55012;47.562;18.414;2023-04-03T02:18:42;11.30;;;5.80;;
68192;SDS011;55012;47.562;18.414;2023-04-03T02:21:07;10.27;;;5.45;;
68192;SDS011;55012;47.562;18.414;2023-04-03T02:23:33;10.75;;;5.40;;
68192;SDS011;55012;47.562;18.414;2023-04-03T02:26:07;10.93;;;5.57;;
68192;SDS011;55012;47.562;18.414;2023-04-03T02:28:34;11.35;;;5.22;;
68192;SDS011;55012;47.562;18.414;2023-04-03T02:31:00;10.27;;;5.78;;
68192;SDS011;55012;47.562;18.414;2023-04-03T02:33:26;10.40;;;5.18;;
68192;SDS011;55012;47.562;18.414;2023-04-03T02:35:53;9.70;;;5.05;;
68192;SDS011;55012;47.562;18.414;2023-04-03T02:38:19;10.20;;;5.60;;
68192;SDS011;55012;47.562;18.414;2023-04-03T02:40:44;10.27;;;5.10;;
68192;SDS011;55012;47.562;18.414;2023-04-03T02:43:10;10.35;;;5.57;;
68192;SDS011;55012;47.562;18.414;2023-04-03T02:45:36;10.07;;;5.63;;
68192;SDS011;55012;47.562;18.414;2023-04-03T02:48:01;9.45;;;4.80;;
68192;SDS011;55012;47.562;18.414;2023-04-03T02:50:27;10.88;;;5.38;;
68192;SDS011;55012;47.562;18.414;2023-04-03T02:52:52;8.48;;;4.82;;
68192;SDS011;55012;47.562;18.414;2023-04-03T02:55:18;8.98;;;4.85;;
68192;SDS011;55012;47.562;18.414;2023-04-03T02:57:43;10.13;;;5.43;;
68192;SDS011;55012;47.562;18.414;2023-04-03T03:00:09;11.18;;;5.80;;
68192;SDS011;55012;47.562;18.414;2023-04-03T03:02:35;13.90;;;6.20;;
68192;SDS011;55012;47.562;18.414;2023-04-03T03:05:00;10.32;;;5.95;;
68192;SDS011;55012;47.562;18.414;2023-04-03T03:07:26;9.63;;;5.47;;
68192;SDS011;55012;47.562;18.414;2023-04-03T03:09:51;11.48;;;5.97;;
68192;SDS011;55012;47.562;18.414;2023-04-03T03:12:17;10.07;;;5.50;;
68192;SDS011;55012;47.562;18.414;2023-04-03T03:14:47;10.38;;;5.18;;
68192;SDS011;55012;47.562;18.414;2023-04-03T03:17:15;10.85;;;5.70;;
68192;SDS011;55012;47.562;18.414;2023-04-03T03:19:41;10.10;;;5.20;;
68192;SDS011;55012;47.562;18.414;2023-04-03T03:22:07;8.88;;;4.78;;
68192;SDS011;55012;47.562;18.414;2023-04-03T03:24:32;11.70;;;5.82;;
68192;SDS011;55012;47.562;18.414;2023-04-03T03:26:58;11.57;;;5.68;;
68192;SDS011;55012;47.562;18.414;2023-04-03T03:29:24;9.18;;;4.90;;
68192;SDS011;55012;47.562;18.414;2023-04-03T03:31:49;10.00;;;5.07;;
68192;SDS011;55012;47.562;18.414;2023-04-03T03:34:15;10.38;;;6.18;;
68192;SDS011;55012;47.562;18.414;2023-04-03T03:36:41;9.18;;;5.00;;
68192;SDS011;55012;47.562;18.414;2023-04-03T03:39:06;9.98;;;5.25;;
68192;SDS011;55012;47.562;18.414;2023-04-03T03:41:32;10.38;;;5.40;;
68192;SDS011;55012;47.562;18.414;2023-04-03T03:43:57;10.35;;;5.45;;
68192;SDS011;55012;47.562;18.414;2023-04-03T03:46:23;9.45;;;5.15;;
68192;SDS011;55012;47.562;18.414;2023-04-03T03:48:48;9.90;;;5.22;;
68192;SDS011;55012;47.562;18.414;2023-04-03T03:51:14;9.88;;;4.75;;
68192;SDS011;55012;47.562;18.414;2023-04-03T03:53:40;10.75;;;5.82;;
68192;SDS011;55012;47.562;18.414;2023-04-03T03:56:05;9.27;;;5.03;;
68192;SDS011;55012;47.562;18.414;2023-04-03T03:58:31;10.65;;;5.25;;
68192;SDS011;55012;47.562;18.414;2023-04-03T04:01:00;7.80;;;4.47;;
68192;SDS011;55012;47.562;18.414;2023-04-03T04:03:26;9.05;;;4.75;;
68192;SDS011;55012;47.562;18.414;2023-04-03T04:05:52;10.48;;;5.47;;
68192;SDS011;55012;47.562;18.414;2023-04-03T04:08:17;8.27;;;4.65;;
68192;SDS011;55012;47.562;18.414;2023-04-03T04:10:43;7.00;;;4.38;;
68192;SDS011;55012;47.562;18.414;2023-04-03T04:13:08;9.45;;;5.28;;
68192;SDS011;55012;47.562;18.414;2023-04-03T04:15:34;8.93;;;5.10;;
68192;SDS011;55012;47.562;18.414;2023-04-03T04:17:59;9.95;;;5.68;;
68192;SDS011;55012;47.562;18.414;2023-04-03T04:20:25;9.93;;;5.03;;
68192;SDS011;55012;47.562;18.414;2023-04-03T04:22:50;10.65;;;5.25;;
68192;SDS011;55012;47.562;18.414;2023-04-03T04:25:16;9.20;;;5.05;;
68192;SDS011;55012;47.562;18.414;2023-04-03T04:27:41;10.32;;;5.47;;
68192;SDS011;55012;47.562;18.414;2023-04-03T04:30:07;8.77;;;5.10;;
68192;SDS011;55012;47.562;18.414;2023-04-03T04:32:33;11.27;;;5.68;;
68192;SDS011;55012;47.562;18.414;2023-04-03T04:34:58;9.23;;;4.40;;
68192;SDS011;55012;47.562;18.414;2023-04-03T04:37:24;9.48;;;5.13;;
68192;SDS011;55012;47.562;18.414;2023-04-03T04:39:50;9.35;;;5.47;;
68192;SDS011;55012;47.562;18.414;2023-04-03T04:42:15;9.15;;;5.25;;
68192;SDS011;55012;47.562;18.414;2023-04-03T04:44:41;10.18;;;5.70;;
68192;SDS011;55012;47.562;18.414;2023-04-03T04:47:07;8.48;;;4.97;;
68192;SDS011;55012;47.562;18.414;2023-04-03T04:49:32;11.43;;;5.57;;
68192;SDS011;55012;47.562;18.414;2023-04-03T04:51:58;10.75;;;5.85;;
68192;SDS011;55012;47.562;18.414;2023-04-03T04:54:23;9.57;;;5.20;;
68192;SDS011;55012;47.562;18.414;2023-04-03T04:56:49;9.80;;;5.45;;
68192;SDS011;55012;47.562;18.414;2023-04-03T04:59:15;10.13;;;5.25;;
68192;SDS011;55012;47.562;18.414;2023-04-03T05:01:40;10.15;;;5.63;;
68192;SDS011;55012;47.562;18.414;2023-04-03T05:04:06;9.77;;;5.15;;
68192;SDS011;55012;47.562;18.414;2023-04-03T05:06:31;10.85;;;5.50;;
68192;SDS011;55012;47.562;18.414;2023-04-03T05:08:58;10.38;;;5.78;;
68192;SDS011;55012;47.562;18.414;2023-04-03T05:11:24;9.77;;;5.63;;
68192;SDS011;55012;47.562;18.414;2023-04-03T05:13:50;8.90;;;5.22;;
68192;SDS011;55012;47.562;18.414;2023-04-03T05:16:16;9.73;;;5.07;;
68192;SDS011;55012;47.562;18.414;2023-04-03T05:18:41;9.13;;;5.38;;
68192;SDS011;55012;47.562;18.414;2023-04-03T05:21:07;9.93;;;5.28;;
68192;SDS011;55012;47.562;18.414;2023-04-03T05:23:32;8.75;;;5.38;;
68192;SDS011;55012;47.562;18.414;2023-04-03T05:25:58;11.88;;;5.95;;
68192;SDS011;55012;47.562;18.414;2023-04-03T05:28:24;10.52;;;5.40;;
68192;SDS011;55012;47.562;18.414;2023-04-03T05:30:53;9.90;;;5.78;;
68192;SDS011;55012;47.562;18.414;2023-04-03T05:33:20;10.15;;;5.60;;
68192;SDS011;55012;47.562;18.414;2023-04-03T05:35:46;10.55;;;5.93;;
68192;SDS011;55012;47.562;18.414;2023-04-03T05:38:11;8.10;;;4.28;;
68192;SDS011;55012;47.562;18.414;2023-04-03T05:40:37;10.88;;;5.78;;
68192;SDS011;55012;47.562;18.414;2023-04-03T05:43:02;10.93;;;5.85;;
68192;SDS011;55012;47.562;18.414;2023-04-03T05:45:28;10.18;;;5.70;;
68192;SDS011;55012;47.562;18.414;2023-04-03T05:47:54;10.73;;;6.05;;
68192;SDS011;55012;47.562;18.414;2023-04-03T05:50:20;10.77;;;6.28;;
68192;SDS011;55012;47.562;18.414;2023-04-03T05:52:46;9.07;;;5.18;;
68192;SDS011;55012;47.562;18.414;2023-04-03T05:55:15;9.75;;;5.35;;
68192;SDS011;55012;47.562;18.414;2023-04-03T05:57:40;10.88;;;5.75;;
68192;SDS011;55012;47.562;18.414;2023-04-03T06:00:07;10.05;;;5.80;;
68192;SDS011;55012;47.562;18.414;2023-04-03T06:02:37;10.43;;;5.75;;
68192;SDS011;55012;47.562;18.414;2023-04-03T06:05:03;9.05;;;4.90;;
68192;SDS011;55012;47.562;18.414;2023-04-03T06:07:29;9.30;;;5.13;;
68192;SDS011;55012;47.562;18.414;2023-04-03T06:09:55;8.45;;;4.95;;
68192;SDS011;55012;47.562;18.414;2023-04-03T06:12:22;8.70;;;4.78;;
68192;SDS011;55012;47.562;18.414;2023-04-03T06:14:48;8.93;;;5.13;;
68192;SDS011;55012;47.562;18.414;2023-04-03T06:17:14;8.43;;;4.78;;
68192;SDS011;55012;47.562;18.414;2023-04-03T06:19:40;7.60;;;4.32;;
68192;SDS011;55012;47.562;18.414;2023-04-03T06:22:06;8.65;;;4.57;;
68192;SDS011;55012;47.562;18.414;2023-04-03T06:24:32;7.88;;;4.82;;
68192;SDS011;55012;47.562;18.414;2023-04-03T06:26:58;7.95;;;4.25;;
68192;SDS011;55012;47.562;18.414;2023-04-03T06:29:23;10.18;;;4.60;;
68192;SDS011;55012;47.562;18.414;2023-04-03T06:31:50;7.05;;;4.18;;
68192;SDS011;55012;47.562;18.414;2023-04-03T06:34:16;6.70;;;4.05;;
68192;SDS011;55012;47.562;18.414;2023-04-03T06:36:43;6.75;;;4.05;;
68192;SDS011;55012;47.562;18.414;2023-04-03T06:39:20;7.13;;;4.13;;
68192;SDS011;55012;47.562;18.414;2023-04-03T06:41:50;5.65;;;3.65;;
68192;SDS011;55012;47.562;18.414;2023-04-03T06:44:15;6.93;;;4.18;;
68192;SDS011;55012;47.562;18.414;2023-04-03T06:46:41;7.63;;;4.05;;
68192;SDS011;55012;47.562;18.414;2023-04-03T06:49:08;8.40;;;4.22;;
68192;SDS011;55012;47.562;18.414;2023-04-03T06:51:34;7.57;;;4.32;;
68192;SDS011;55012;47.562;18.414;2023-04-03T06:54:00;6.03;;;3.75;;
68192;SDS011;55012;47.562;18.414;2023-04-03T06:56:27;7.03;;;3.50;;
68192;SDS011;55012;47.562;18.414;2023-04-03T06:58:53;6.00;;;3.50;;
68192;SDS011;55012;47.562;18.414;2023-04-03T07:01:22;6.80;;;4.30;;
68192;SDS011;55012;47.562;18.414;2023-04-03T07:03:48;6.57;;;4.30;;
68192;SDS011;55012;47.562;18.414;2023-04-03T07:06:15;8.18;;;4.05;;
68192;SDS011;55012;47.562;18.414;2023-04-03T07:08:42;6.95;;;3.53;;
68192;SDS011;55012;47.562;18.414;2023-04-03T07:11:08;5.93;;;3.92;;
68192;SDS011;55012;47.562;18.414;2023-04-03T07:13:35;8.00;;;3.55;;
68192;SDS011;55012;47.562;18.414;2023-04-03T07:16:01;5.85;;;3.65;;
68192;SDS011;55012;47.562;18.414;2023-04-03T07:18:28;7.70;;;4.13;;
68192;SDS011;55012;47.562;18.414;2023-04-03T07:20:54;7.25;;;3.75;;
68192;SDS011;55012;47.562;18.414;2023-04-03T07:23:20;5.72;;;3.60;;
68192;SDS011;55012;47.562;18.414;2023-04-03T07:25:46;5.63;;;3.35;;
68192;SDS011;55012;47.562;18.414;2023-04-03T07:28:13;8.30;;;4.20;;
68192;SDS011;55012;47.562;18.414;2023-04-03T07:30:45;7.05;;;3.63;;
68192;SDS011;55012;47.562;18.414;2023-04-03T07:33:13;5.72;;;3.47;;
68192;SDS011;55012;47.562;18.414;2023-04-03T07:35:42;4.63;;;2.90;;
68192;SDS011;55012;47.562;18.414;2023-04-03T07:38:08;4.88;;;2.63;;
68192;SDS011;55012;47.562;18.414;2023-04-03T07:40:34;4.63;;;3.05;;
68192;SDS011;55012;47.562;18.414;2023-04-03T07:43:00;4.95;;;2.95;;
68192;SDS011;55012;47.562;18.414;2023-04-03T07:45:26;4.75;;;3.13;;
68192;SDS011;55012;47.562;18.414;2023-04-03T07:47:52;4.97;;;2.60;;
68192;SDS011;55012;47.562;18.414;2023-04-03T07:50:18;4.07;;;2.90;;
68192;SDS011;55012;47.562;18.414;2023-04-03T07:52:43;6.43;;;2.80;;
68192;SDS011;55012;47.562;18.414;2023-04-03T07:55:10;4.32;;;2.70;;
68192;SDS011;55012;47.562;18.414;2023-04-03T07:57:36;4.85;;;2.92;;
68192;SDS011;55012;47.562;18.414;2023-04-03T08:00:03;3.83;;;2.40;;
68192;SDS011;55012;47.562;18.414;2023-04-03T08:02:30;3.72;;;2.70;;
68192;SDS011;55012;47.562;18.414;2023-04-03T08:04:57;4.50;;;2.75;;
68192;SDS011;55012;47.562;18.414;2023-04-03T08:07:23;7.15;;;2.67;;
68192;SDS011;55012;47.562;18.414;2023-04-03T08:09:48;3.97;;;2.35;;
68192;SDS011;55012;47.562;18.414;2023-04-03T08:12:14;4.00;;;2.20;;
68192;SDS011;55012;47.562;18.414;2023-04-03T08:14:40;4.00;;;2.22;;
68192;SDS011;55012;47.562;18.414;2023-04-03T08:17:05;4.20;;;2.10;;
68192;SDS011;55012;47.562;18.414;2023-04-03T08:19:34;2.33;;;1.70;;
68192;SDS011;55012;47.562;18.414;2023-04-03T08:22:00;3.80;;;2.05;;
68192;SDS011;55012;47.562;18.414;2023-04-03T08:24:28;4.18;;;2.28;;
68192;SDS011;55012;47.562;18.414;2023-04-03T08:26:53;3.05;;;2.10;;
68192;SDS011;55012;47.562;18.414;2023-04-03T08:29:19;3.53;;;2.35;;
68192;SDS011;55012;47.562;18.414;2023-04-03T08:31:46;3.08;;;2.00;;
68192;SDS011;55012;47.562;18.414;2023-04-03T08:34:12;3.55;;;2.13;;
68192;SDS011;55012;47.562;18.414;2023-04-03T08:36:39;3.47;;;2.00;;
68192;SDS011;55012;47.562;18.414;2023-04-03T08:39:05;4.57;;;1.67;;
68192;SDS011;55012;47.562;18.414;2023-04-03T08:49:22;2.85;;;2.20;;
68192;SDS011;55012;47.562;18.414;2023-04-03T08:51:53;2.90;;;2.00;;
68192;SDS011;55012;47.562;18.414;2023-04-03T08:54:25;3.95;;;2.40;;
68192;SDS011;55012;47.562;18.414;2023-04-03T08:56:55;3.15;;;2.10;;
68192;SDS011;55012;47.562;18.414;2023-04-03T08:59:24;2.83;;;2.13;;
68192;SDS011;55012;47.562;18.414;2023-04-03T09:01:54;4.32;;;2.22;;
68192;SDS011;55012;47.562;18.414;2023-04-03T09:04:21;2.75;;;1.90;;
68192;SDS011;55012;47.562;18.414;2023-04-03T09:06:49;3.72;;;2.38;;
68192;SDS011;55012;47.562;18.414;2023-04-03T09:09:30;3.10;;;2.00;;
68192;SDS011;55012;47.562;18.414;2023-04-03T09:17:21;4.07;;;2.60;;
68192;SDS011;55012;47.562;18.414;2023-04-03T09:20:10;4.35;;;2.97;;
68192;SDS011;55012;47.562;18.414;2023-04-03T09:22:45;8.43;;;2.97;;
68192;SDS011;55012;47.562;18.414;2023-04-03T09:27:41;3.75;;;2.53;;
68192;SDS011;55012;47.562;18.414;2023-04-03T09:30:16;4.05;;;2.60;;
68192;SDS011;55012;47.562;18.414;2023-04-03T09:32:53;4.25;;;2.85;;
68192;SDS011;55012;47.562;18.414;2023-04-03T09:37:54;4.20;;;3.00;;
68192;SDS011;55012;47.562;18.414;2023-04-03T09:42:55;6.57;;;3.15;;
68192;SDS011;55012;47.562;18.414;2023-04-03T09:51:00;7.05;;;3.90;;
68192;SDS011;55012;47.562;18.414;2023-04-03T09:56:02;7.93;;;3.47;;
68192;SDS011;55012;47.562;18.414;2023-04-03T10:01:30;8.23;;;4.72;;
68192;SDS011;55012;47.562;18.414;2023-04-03T10:04:10;10.38;;;4.80;;
68192;SDS011;55012;47.562;18.414;2023-04-03T10:14:35;8.40;;;4.10;;
68192;SDS011;55012;47.562;18.414;2023-04-03T10:17:17;7.47;;;4.20;;
68192;SDS011;55012;47.562;18.414;2023-04-03T10:22:49;6.95;;;3.88;;
68192;SDS011;55012;47.562;18.414;2023-04-03T10:25:42;8.10;;;3.95;;
68192;SDS011;55012;47.562;18.414;2023-04-03T10:59:08;5.13;;;3.10;;
68192;SDS011;55012;47.562;18.414;2023-04-03T11:01:48;4.95;;;3.22;;
68192;SDS011;55012;47.562;18.414;2023-04-03T11:04:25;4.93;;;3.00;;
68192;SDS011;55012;47.562;18.414;2023-04-03T11:06:58;6.93;;;3.53;;
68192;SDS011;55012;47.562;18.414;2023-04-03T11:09:28;6.25;;;3.22;;
68192;SDS011;55012;47.562;18.414;2023-04-03T11:12:15;4.57;;;3.05;;
68192;SDS011;55012;47.562;18.414;2023-04-03T11:14:46;3.92;;;2.70;;
68192;SDS011;55012;47.562;18.414;2023-04-03T11:22:58;4.25;;;2.95;;
68192;SDS011;55012;47.562;18.414;2023-04-03T11:25:22;5.30;;;3.35;;
68192;SDS011;55012;47.562;18.414;2023-04-03T11:33:02;4.43;;;2.88;;
68192;SDS011;55012;47.562;18.414;2023-04-03T11:35:43;5.30;;;3.10;;
68192;SDS011;55012;47.562;18.414;2023-04-03T11:38:14;5.80;;;3.10;;
68192;SDS011;55012;47.562;18.414;2023-04-03T11:40:45;3.90;;;2.70;;
68192;SDS011;55012;47.562;18.414;2023-04-03T11:43:30;6.50;;;3.20;;
68192;SDS011;55012;47.562;18.414;2023-04-03T11:50:52;4.90;;;3.00;;
68192;SDS011;55012;47.562;18.414;2023-04-03T12:06:47;4.93;;;3.10;;
68192;SDS011;55012;47.562;18.414;2023-04-03T12:11:56;5.00;;;3.00;;
68192;SDS011;55012;47.562;18.414;2023-04-03T12:14:24;3.72;;;2.70;;
68192;SDS011;55012;47.562;18.414;2023-04-03T12:16:51;4.53;;;3.10;;
68192;SDS011;55012;47.562;18.414;2023-04-03T12:19:27;3.83;;;2.45;;
68192;SDS011;55012;47.562;18.414;2023-04-03T12:22:16;4.38;;;2.80;;
68192;SDS011;55012;47.562;18.414;2023-04-03T12:24:45;4.75;;;2.80;;
68192;SDS011;55012;47.562;18.414;2023-04-03T12:29:54;4.55;;;3.00;;
68192;SDS011;55012;47.562;18.414;2023-04-03T12:38:15;4.20;;;3.00;;
68192;SDS011;55012;47.562;18.414;2023-04-03T12:44:09;6.18;;;2.80;;
68192;SDS011;55012;47.562;18.414;2023-04-03T12:46:58;11.70;;;4.10;;
68192;SDS011;55012;47.562;18.414;2023-04-03T12:50:00;5.80;;;3.35;;
68192;SDS011;55012;47.562;18.414;2023-04-03T12:52:37;4.38;;;2.95;;
68192;SDS011;55012;47.562;18.414;2023-04-03T12:55:14;7.28;;;3.30;;
68192;SDS011;55012;47.562;18.414;2023-04-03T12:57:45;6.30;;;3.30;;
68192;SDS011;55012;47.562;18.414;2023-04-03T13:02:58;5.30;;;3.42;;
68192;SDS011;55012;47.562;18.414;2023-04-03T13:05:24;5.07;;;3.28;;
68192;SDS011;55012;47.562;18.414;2023-04-03T13:07:52;5.47;;;3.63;;
68192;SDS011;55012;47.562;18.414;2023-04-03T13:10:30;9.10;;;3.65;;
68192;SDS011;55012;47.562;18.414;2023-04-03T13:12:58;5.85;;;3.20;;
68192;SDS011;55012;47.562;18.414;2023-04-03T13:20:59;5.00;;;2.88;;
68192;SDS011;55012;47.562;18.414;2023-04-03T13:23:30;5.25;;;3.20;;
68192;SDS011;55012;47.562;18.414;2023-04-03T13:25:58;5.75;;;3.45;;
68192;SDS011;55012;47.562;18.414;2023-04-03T13:28:28;5.60;;;3.45;;
68192;SDS011;55012;47.562;18.414;2023-04-03T13:33:22;5.37;;;2.97;;
68192;SDS011;55012;47.562;18.414;2023-04-03T13:36:00;5.65;;;3.30;;
68192;SDS011;55012;47.562;18.414;2023-04-03T13:38:30;7.57;;;3.88;;
68192;SDS011;55012;47.562;18.414;2023-04-03T13:41:00;5.28;;;2.50;;
68192;SDS011;55012;47.562;18.414;2023-04-03T13:43:32;6.45;;;3.10;;
68192;SDS011;55012;47.562;18.414;2023-04-03T13:46:22;6.82;;;2.88;;
68192;SDS011;55012;47.562;18.414;2023-04-03T13:48:51;4.93;;;2.95;;
68192;SDS011;55012;47.562;18.414;2023-04-03T13:51:20;7.85;;;3.03;;
68192;SDS011;55012;47.562;18.414;2023-04-03T13:56:29;4.80;;;2.80;;
68192;SDS011;55012;47.562;18.414;2023-04-03T14:04:27;5.28;;;2.95;;
68192;SDS011;55012;47.562;18.414;2023-04-03T14:06:54;5.50;;;2.80;;
68192;SDS011;55012;47.562;18.414;2023-04-03T14:09:20;6.25;;;2.80;;
68192;SDS011;55012;47.562;18.414;2023-04-03T14:11:48;5.32;;;3.05;;
68192;SDS011;55012;47.562;18.414;2023-04-03T14:14:21;6.22;;;2.80;;
68192;SDS011;55012;47.562;18.414;2023-04-03T14:16:52;6.93;;;3.28;;
68192;SDS011;55012;47.562;18.414;2023-04-03T14:19:24;7.22;;;3.10;;
68192;SDS011;55012;47.562;18.414;2023-04-03T14:21:52;4.38;;;2.80;;
68192;SDS011;55012;47.562;18.414;2023-04-03T14:24:19;7.05;;;3.33;;
68192;SDS011;55012;47.562;18.414;2023-04-03T14:26:45;4.93;;;3.03;;
68192;SDS011;55012;47.562;18.414;2023-04-03T14:29:11;4.38;;;3.05;;
68192;SDS011;55012;47.562;18.414;2023-04-03T14:31:38;5.47;;;3.00;;
68192;SDS011;55012;47.562;18.414;2023-04-03T14:34:04;3.22;;;2.50;;
68192;SDS011;55012;47.562;18.414;2023-04-03T14:36:30;4.72;;;2.80;;
68192;SDS011;55012;47.562;18.414;2023-04-03T14:38:56;5.43;;;3.00;;
68192;SDS011;55012;47.562;18.414;2023-04-03T14:41:24;3.72;;;2.70;;
68192;SDS011;55012;47.562;18.414;2023-04-03T14:43:51;5.38;;;3.20;;
68192;SDS011;55012;47.562;18.414;2023-04-03T14:46:22;5.38;;;2.88;;
68192;SDS011;55012;47.562;18.414;2023-04-03T14:48:53;3.85;;;2.58;;
68192;SDS011;55012;47.562;18.414;2023-04-03T14:51:19;5.70;;;2.75;;
68192;SDS011;55012;47.562;18.414;2023-04-03T14:53:45;4.57;;;2.90;;
68192;SDS011;55012;47.562;18.414;2023-04-03T14:56:12;5.35;;;2.85;;
68192;SDS011;55012;47.562;18.414;2023-04-03T14:58:43;5.32;;;2.90;;
68192;SDS011;55012;47.562;18.414;2023-04-03T15:01:12;5.28;;;2.83;;
68192;SDS011;55012;47.562;18.414;2023-04-03T15:03:39;6.10;;;2.88;;
68192;SDS011;55012;47.562;18.414;2023-04-03T15:06:04;4.70;;;2.80;;
68192;SDS011;55012;47.562;18.414;2023-04-03T15:08:30;6.03;;;3.13;;
68192;SDS011;55012;47.562;18.414;2023-04-03T15:10:56;4.50;;;2.75;;
68192;SDS011;55012;47.562;18.414;2023-04-03T15:13:22;5.30;;;2.58;;
68192;SDS011;55012;47.562;18.414;2023-04-03T15:15:49;5.70;;;3.25;;
68192;SDS011;55012;47.562;18.414;2023-04-03T15:18:20;6.38;;;2.90;;
68192;SDS011;55012;47.562;18.414;2023-04-03T15:20:47;8.50;;;2.90;;
68192;SDS011;55012;47.562;18.414;2023-04-03T15:23:14;4.72;;;2.70;;
68192;SDS011;55012;47.562;18.414;2023-04-03T15:25:41;7.60;;;3.20;;
68192;SDS011;55012;47.562;18.414;2023-04-03T15:28:08;4.40;;;2.65;;
68192;SDS011;55012;47.562;18.414;2023-04-03T15:30:47;4.90;;;2.70;;
68192;SDS011;55012;47.562;18.414;2023-04-03T15:33:12;5.70;;;3.00;;
68192;SDS011;55012;47.562;18.414;2023-04-03T15:35:38;6.57;;;2.58;;
68192;SDS011;55012;47.562;18.414;2023-04-03T15:38:03;5.20;;;2.90;;
68192;SDS011;55012;47.562;18.414;2023-04-03T15:40:30;7.00;;;2.80;;
68192;SDS011;55012;47.562;18.414;2023-04-03T15:42:56;6.32;;;2.83;;
68192;SDS011;55012;47.562;18.414;2023-04-03T15:45:21;5.70;;;2.78;;
68192;SDS011;55012;47.562;18.414;2023-04-03T15:47:47;4.57;;;2.80;;
68192;SDS011;55012;47.562;18.414;2023-04-03T15:50:13;5.60;;;2.53;;
68192;SDS011;55012;47.562;18.414;2023-04-03T15:52:38;4.70;;;2.40;;
68192;SDS011;55012;47.562;18.414;2023-04-03T15:55:04;7.43;;;2.47;;
68192;SDS011;55012;47.562;18.414;2023-04-03T15:57:30;4.20;;;2.30;;
68192;SDS011;55012;47.562;18.414;2023-04-03T15:59:56;4.47;;;2.22;;
68192;SDS011;55012;47.562;18.414;2023-04-03T16:02:21;4.13;;;2.30;;
68192;SDS011;55012;47.562;18.414;2023-04-03T16:04:47;4.88;;;2.10;;
68192;SDS011;55012;47.562;18.414;2023-04-03T16:07:13;6.82;;;2.50;;
68192;SDS011;55012;47.562;18.414;2023-04-03T16:09:39;3.63;;;2.15;;
68192;SDS011;55012;47.562;18.414;2023-04-03T16:12:05;5.30;;;2.35;;
68192;SDS011;55012;47.562;18.414;2023-04-03T16:14:30;4.63;;;2.40;;
68192;SDS011;55012;47.562;18.414;2023-04-03T16:16:56;5.70;;;2.20;;
68192;SDS011;55012;47.562;18.414;2023-04-03T16:19:23;5.05;;;2.42;;
68192;SDS011;55012;47.562;18.414;2023-04-03T16:21:49;3.67;;;2.00;;
68192;SDS011;55012;47.562;18.414;2023-04-03T16:24:14;5.15;;;2.55;;
68192;SDS011;55012;47.562;18.414;2023-04-03T16:26:40;6.50;;;2.50;;
68192;SDS011;55012;47.562;18.414;2023-04-03T16:29:05;5.80;;;2.97;;
68192;SDS011;55012;47.562;18.414;2023-04-03T16:31:32;6.00;;;2.40;;
68192;SDS011;55012;47.562;18.414;2023-04-03T16:33:58;5.75;;;2.97;;
68192;SDS011;55012;47.562;18.414;2023-04-03T16:36:25;5.50;;;2.50;;
68192;SDS011;55012;47.562;18.414;2023-04-03T16:38:51;4.72;;;2.05;;
68192;SDS011;55012;47.562;18.414;2023-04-03T16:41:16;4.28;;;2.10;;
68192;SDS011;55012;47.562;18.414;2023-04-03T16:43:42;5.25;;;2.55;;
68192;SDS011;55012;47.562;18.414;2023-04-03T16:46:07;4.47;;;2.13;;
68192;SDS011;55012;47.562;18.414;2023-04-03T16:48:33;3.70;;;2.22;;
68192;SDS011;55012;47.562;18.414;2023-04-03T16:50:59;5.20;;;2.30;;
68192;SDS011;55012;47.562;18.414;2023-04-03T16:53:25;6.78;;;2.50;;
68192;SDS011;55012;47.562;18.414;2023-04-03T16:55:52;4.60;;;2.28;;
68192;SDS011;55012;47.562;18.414;2023-04-03T16:58:18;4.43;;;2.47;;
68192;SDS011;55012;47.562;18.414;2023-04-03T17:00:44;8.25;;;2.63;;